createdAt,value
2022-08-16T00:08:30.729Z,22.6
2022-08-16T00:23:55.457Z,22.6
2022-08-16T00:39:05.481Z,22.5
2022-08-16T00:54:15.037Z,22.4
2022-08-16T01:09:34.330Z,22.4
2022-08-16T01:24:54.946Z,22.4
2022-08-16T01:40:07.044Z,22.2
2022-08-16T01:55:20.989Z,22.1
2022-08-16T02:10:31.471Z,22.1
2022-08-16T02:25:51.299Z,22
2022-08-16T02:41:09.651Z,21.8
2022-08-16T02:56:23.976Z,21.6
2022-08-16T03:11:47.132Z,21.6
2022-08-16T03:26:57.899Z,21.6
2022-08-16T03:42:09.553Z,21.6
2022-08-16T03:57:19.561Z,21.6
2022-08-16T04:12:52.617Z,21.5
2022-08-16T04:28:53.119Z,21.4
2022-08-16T04:44:53.059Z,21.4
2022-08-16T05:00:25.213Z,21.5
2022-08-16T05:15:46.023Z,21.5
2022-08-16T05:31:06.771Z,21.6
2022-08-16T05:46:28.499Z,21.8
2022-08-16T06:01:41.189Z,22
2022-08-16T06:16:51.790Z,22.1
2022-08-16T06:32:27.441Z,22.2
2022-08-16T06:47:56.480Z,22.5
2022-08-16T07:03:15.607Z,22.8
2022-08-16T07:19:08.016Z,22.9
2022-08-16T07:34:18.535Z,23.1
2022-08-16T07:49:58.748Z,23.4
2022-08-16T08:05:08.099Z,23.6
2022-08-16T08:20:18.699Z,23.7
2022-08-16T08:35:38.506Z,23.9
2022-08-16T08:50:49.962Z,24.2
2022-08-16T09:06:00.641Z,24.5
2022-08-16T09:21:09.765Z,24.8
2022-08-16T09:36:31.765Z,25.1
2022-08-16T09:51:44.228Z,25.4
2022-08-16T10:06:53.875Z,25.7
2022-08-16T10:22:08.065Z,26
2022-08-16T10:37:32.390Z,26.3
2022-08-16T10:52:46.711Z,26.7
2022-08-16T11:08:10.127Z,26.7
2022-08-16T11:23:26.021Z,26.9
2022-08-16T11:38:47.824Z,27.5
2022-08-16T11:54:20.248Z,28
2022-08-16T12:09:48.127Z,28.5
2022-08-16T12:25:14.546Z,30.4
2022-08-16T12:40:29.236Z,30.4
2022-08-16T12:55:42.140Z,29.4
2022-08-16T13:10:59.176Z,28.9
2022-08-16T13:26:08.881Z,28.6
2022-08-16T13:41:19.209Z,29
2022-08-16T13:56:37.345Z,29.8
2022-08-16T14:11:53.267Z,29.7
2022-08-16T14:27:07.614Z,31.3
2022-08-16T14:42:21.053Z,31.3
2022-08-16T14:57:31.751Z,33.3
2022-08-16T15:12:43.031Z,34.4
2022-08-16T15:27:56.277Z,34.2
2022-08-16T15:43:06.602Z,32.5
2022-08-16T15:58:34.735Z,31.9
2022-08-16T16:13:48.149Z,31.3
2022-08-16T16:29:06.791Z,30.6
2022-08-16T16:44:31.881Z,30.2
2022-08-16T17:00:04.621Z,29.8
2022-08-16T17:16:01.358Z,29.3
2022-08-16T17:31:13.800Z,29
2022-08-16T17:46:53.072Z,28.7
2022-08-16T18:02:15.495Z,28.4
2022-08-16T18:17:54.921Z,28.1
2022-08-16T18:33:03.896Z,27.8
2022-08-16T18:48:13.334Z,27.5
2022-08-16T19:03:57.878Z,27.3
2022-08-16T19:19:09.164Z,26.9
2022-08-16T19:34:18.166Z,26.7
2022-08-16T19:49:27.479Z,26.5
2022-08-16T20:04:36.139Z,26.2
2022-08-16T20:19:45.243Z,25.9
2022-08-16T20:34:57.302Z,25.7
2022-08-16T20:50:06.591Z,25.5
2022-08-16T21:05:16.021Z,25.3
2022-08-16T21:20:25.525Z,25.1
2022-08-16T21:35:34.829Z,25
2022-08-16T21:50:44.360Z,24.9
2022-08-16T22:06:00.224Z,24.7
2022-08-16T22:21:24.190Z,24.5
2022-08-16T22:36:33.590Z,24.4
2022-08-16T22:51:43.020Z,24.2
2022-08-16T23:06:52.581Z,24.1
2022-08-16T23:22:02.188Z,24
2022-08-16T23:37:13.327Z,23.9
2022-08-16T23:52:38.186Z,23.7
